sensor_id;sensor_type;location;lat;lon;timestamp;P1;durP1;ratioP1;P2;durP2;ratioP2
46675;SDS011;32412;51.478;5.694;2023-12-20T00:01:19;20.15;;;8.75;;
46675;SDS011;32412;51.478;5.694;2023-12-20T00:03:46;20.35;;;7.93;;
46675;SDS011;32412;51.478;5.694;2023-12-20T00:06:11;17.63;;;8.35;;
46675;SDS011;32412;51.478;5.694;2023-12-20T00:08:37;22.85;;;7.85;;
46675;SDS011;32412;51.478;5.694;2023-12-20T00:11:03;19.52;;;7.07;;
46675;SDS011;32412;51.478;5.694;2023-12-20T00:13:28;22.38;;;7.10;;
46675;SDS011;32412;51.478;5.694;2023-12-20T00:15:54;27.25;;;6.90;;
46675;SDS011;32412;51.478;5.694;2023-12-20T00:18:19;23.83;;;6.45;;
46675;SDS011;32412;51.478;5.694;2023-12-20T00:20:45;25.10;;;6.57;;
46675;SDS011;32412;51.478;5.694;2023-12-20T00:23:11;24.38;;;6.65;;
46675;SDS011;32412;51.478;5.694;2023-12-20T00:25:36;26.00;;;6.22;;
46675;SDS011;32412;51.478;5.694;2023-12-20T00:28:02;19.85;;;5.82;;
46675;SDS011;32412;51.478;5.694;2023-12-20T00:30:28;19.98;;;5.60;;
46675;SDS011;32412;51.478;5.694;2023-12-20T00:32:54;17.00;;;5.20;;
46675;SDS011;32412;51.478;5.694;2023-12-20T00:35:20;20.15;;;4.80;;
46675;SDS011;32412;51.478;5.694;2023-12-20T00:37:46;20.17;;;4.50;;
46675;SDS011;32412;51.478;5.694;2023-12-20T00:40:11;21.77;;;4.47;;
46675;SDS011;32412;51.478;5.694;2023-12-20T00:42:37;18.15;;;5.03;;
46675;SDS011;32412;51.478;5.694;2023-12-20T00:45:03;17.40;;;4.22;;
46675;SDS011;32412;51.478;5.694;2023-12-20T00:47:30;22.17;;;4.07;;
46675;SDS011;32412;51.478;5.694;2023-12-20T00:49:56;18.15;;;3.38;;
46675;SDS011;32412;51.478;5.694;2023-12-20T00:52:22;10.73;;;3.67;;
46675;SDS011;32412;51.478;5.694;2023-12-20T00:54:47;24.67;;;3.95;;
46675;SDS011;32412;51.478;5.694;2023-12-20T00:57:13;20.48;;;3.40;;
46675;SDS011;32412;51.478;5.694;2023-12-20T00:59:40;20.05;;;3.45;;
46675;SDS011;32412;51.478;5.694;2023-12-20T01:02:05;21.15;;;3.17;;
46675;SDS011;32412;51.478;5.694;2023-12-20T01:04:31;17.20;;;2.67;;
46675;SDS011;32412;51.478;5.694;2023-12-20T01:06:57;12.95;;;2.45;;
46675;SDS011;32412;51.478;5.694;2023-12-20T01:09:22;13.10;;;2.78;;
46675;SDS011;32412;51.478;5.694;2023-12-20T01:11:51;18.02;;;3.47;;
46675;SDS011;32412;51.478;5.694;2023-12-20T01:14:17;19.33;;;3.85;;
46675;SDS011;32412;51.478;5.694;2023-12-20T01:16:43;19.02;;;2.95;;
46675;SDS011;32412;51.478;5.694;2023-12-20T01:19:08;12.57;;;2.83;;
46675;SDS011;32412;51.478;5.694;2023-12-20T01:21:34;15.77;;;2.70;;
46675;SDS011;32412;51.478;5.694;2023-12-20T01:23:59;11.82;;;2.58;;
46675;SDS011;32412;51.478;5.694;2023-12-20T01:26:25;18.25;;;3.53;;
46675;SDS011;32412;51.478;5.694;2023-12-20T01:28:51;13.65;;;2.50;;
46675;SDS011;32412;51.478;5.694;2023-12-20T01:31:16;12.48;;;2.40;;
46675;SDS011;32412;51.478;5.694;2023-12-20T01:33:42;12.52;;;2.60;;
46675;SDS011;32412;51.478;5.694;2023-12-20T01:36:08;15.90;;;2.88;;
46675;SDS011;32412;51.478;5.694;2023-12-20T01:38:34;21.15;;;2.40;;
46675;SDS011;32412;51.478;5.694;2023-12-20T01:40:59;11.63;;;2.95;;
46675;SDS011;32412;51.478;5.694;2023-12-20T01:43:25;14.02;;;2.78;;
46675;SDS011;32412;51.478;5.694;2023-12-20T01:45:51;12.07;;;2.28;;
46675;SDS011;32412;51.478;5.694;2023-12-20T01:48:17;11.68;;;2.80;;
46675;SDS011;32412;51.478;5.694;2023-12-20T01:50:44;17.30;;;2.45;;
46675;SDS011;32412;51.478;5.694;2023-12-20T01:53:11;12.27;;;2.80;;
46675;SDS011;32412;51.478;5.694;2023-12-20T01:55:39;10.15;;;2.17;;
46675;SDS011;32412;51.478;5.694;2023-12-20T01:58:08;15.00;;;2.95;;
46675;SDS011;32412;51.478;5.694;2023-12-20T02:00:36;14.63;;;3.17;;
46675;SDS011;32412;51.478;5.694;2023-12-20T02:03:02;19.77;;;2.83;;
46675;SDS011;32412;51.478;5.694;2023-12-20T02:05:34;21.55;;;2.67;;
46675;SDS011;32412;51.478;5.694;2023-12-20T02:08:01;16.17;;;2.97;;
46675;SDS011;32412;51.478;5.694;2023-12-20T02:10:27;20.92;;;2.80;;
46675;SDS011;32412;51.478;5.694;2023-12-20T02:12:54;16.05;;;2.67;;
46675;SDS011;32412;51.478;5.694;2023-12-20T02:15:20;10.57;;;2.38;;
46675;SDS011;32412;51.478;5.694;2023-12-20T02:17:46;16.05;;;2.45;;
46675;SDS011;32412;51.478;5.694;2023-12-20T02:20:13;12.13;;;2.50;;
46675;SDS011;32412;51.478;5.694;2023-12-20T02:22:39;19.70;;;2.70;;
46675;SDS011;32412;51.478;5.694;2023-12-20T02:25:05;14.25;;;2.17;;
46675;SDS011;32412;51.478;5.694;2023-12-20T02:27:31;20.50;;;2.92;;
46675;SDS011;32412;51.478;5.694;2023-12-20T02:29:56;16.98;;;2.72;;
46675;SDS011;32412;51.478;5.694;2023-12-20T02:32:22;22.48;;;3.03;;
46675;SDS011;32412;51.478;5.694;2023-12-20T02:34:52;20.75;;;3.30;;
46675;SDS011;32412;51.478;5.694;2023-12-20T02:37:18;24.23;;;2.95;;
46675;SDS011;32412;51.478;5.694;2023-12-20T02:39:44;16.35;;;2.70;;
46675;SDS011;32412;51.478;5.694;2023-12-20T02:42:10;15.35;;;2.80;;
46675;SDS011;32412;51.478;5.694;2023-12-20T02:44:35;21.40;;;3.55;;
46675;SDS011;32412;51.478;5.694;2023-12-20T02:47:01;16.08;;;2.60;;
46675;SDS011;32412;51.478;5.694;2023-12-20T02:49:27;14.43;;;2.90;;
46675;SDS011;32412;51.478;5.694;2023-12-20T02:51:53;14.13;;;2.80;;
46675;SDS011;32412;51.478;5.694;2023-12-20T02:54:18;19.55;;;3.05;;
46675;SDS011;32412;51.478;5.694;2023-12-20T02:56:44;14.20;;;3.33;;
46675;SDS011;32412;51.478;5.694;2023-12-20T02:59:10;24.65;;;3.20;;
46675;SDS011;32412;51.478;5.694;2023-12-20T03:01:35;17.40;;;2.92;;
46675;SDS011;32412;51.478;5.694;2023-12-20T03:04:07;22.48;;;2.95;;
46675;SDS011;32412;51.478;5.694;2023-12-20T03:06:33;20.02;;;2.78;;
46675;SDS011;32412;51.478;5.694;2023-12-20T03:08:59;17.45;;;3.15;;
46675;SDS011;32412;51.478;5.694;2023-12-20T03:11:28;22.85;;;3.35;;
46675;SDS011;32412;51.478;5.694;2023-12-20T03:13:54;16.65;;;3.30;;
46675;SDS011;32412;51.478;5.694;2023-12-20T03:16:20;17.45;;;3.30;;
46675;SDS011;32412;51.478;5.694;2023-12-20T03:18:45;20.73;;;3.58;;
46675;SDS011;32412;51.478;5.694;2023-12-20T03:21:11;16.95;;;2.97;;
46675;SDS011;32412;51.478;5.694;2023-12-20T03:23:37;18.00;;;3.13;;
46675;SDS011;32412;51.478;5.694;2023-12-20T03:26:02;16.63;;;3.08;;
46675;SDS011;32412;51.478;5.694;2023-12-20T03:28:29;16.60;;;2.78;;
46675;SDS011;32412;51.478;5.694;2023-12-20T03:30:55;17.23;;;3.65;;
46675;SDS011;32412;51.478;5.694;2023-12-20T03:33:20;10.52;;;2.88;;
46675;SDS011;32412;51.478;5.694;2023-12-20T03:35:46;14.50;;;2.80;;
46675;SDS011;32412;51.478;5.694;2023-12-20T03:38:11;16.33;;;2.63;;
46675;SDS011;32412;51.478;5.694;2023-12-20T03:40:37;13.93;;;2.90;;
46675;SDS011;32412;51.478;5.694;2023-12-20T03:43:03;19.27;;;3.25;;
46675;SDS011;32412;51.478;5.694;2023-12-20T03:45:29;19.30;;;4.10;;
46675;SDS011;32412;51.478;5.694;2023-12-20T03:47:54;24.08;;;4.03;;
46675;SDS011;32412;51.478;5.694;2023-12-20T03:50:22;22.88;;;3.75;;
46675;SDS011;32412;51.478;5.694;2023-12-20T03:52:48;20.63;;;4.55;;
46675;SDS011;32412;51.478;5.694;2023-12-20T03:55:13;21.88;;;4.32;;
46675;SDS011;32412;51.478;5.694;2023-12-20T03:57:40;23.52;;;4.65;;
46675;SDS011;32412;51.478;5.694;2023-12-20T04:00:06;23.40;;;4.10;;
46675;SDS011;32412;51.478;5.694;2023-12-20T04:02:36;20.15;;;4.60;;
46675;SDS011;32412;51.478;5.694;2023-12-20T04:05:02;20.73;;;4.63;;
46675;SDS011;32412;51.478;5.694;2023-12-20T04:07:28;19.13;;;4.53;;
46675;SDS011;32412;51.478;5.694;2023-12-20T04:09:54;18.42;;;5.05;;
46675;SDS011;32412;51.478;5.694;2023-12-20T04:12:20;18.40;;;4.70;;
46675;SDS011;32412;51.478;5.694;2023-12-20T04:14:46;17.45;;;4.70;;
46675;SDS011;32412;51.478;5.694;2023-12-20T04:17:11;19.00;;;4.57;;
46675;SDS011;32412;51.478;5.694;2023-12-20T04:19:37;18.75;;;5.07;;
46675;SDS011;32412;51.478;5.694;2023-12-20T04:22:03;24.75;;;4.57;;
46675;SDS011;32412;51.478;5.694;2023-12-20T04:24:28;19.95;;;5.13;;
46675;SDS011;32412;51.478;5.694;2023-12-20T04:26:54;13.55;;;4.65;;
46675;SDS011;32412;51.478;5.694;2023-12-20T04:29:20;16.27;;;4.72;;
46675;SDS011;32412;51.478;5.694;2023-12-20T04:31:45;20.45;;;4.78;;
46675;SDS011;32412;51.478;5.694;2023-12-20T04:34:11;20.77;;;4.68;;
46675;SDS011;32412;51.478;5.694;2023-12-20T04:36:37;19.02;;;5.05;;
46675;SDS011;32412;51.478;5.694;2023-12-20T04:39:02;23.80;;;5.15;;
46675;SDS011;32412;51.478;5.694;2023-12-20T04:41:28;22.33;;;4.70;;
46675;SDS011;32412;51.478;5.694;2023-12-20T04:43:54;17.80;;;5.43;;
46675;SDS011;32412;51.478;5.694;2023-12-20T04:46:19;28.45;;;6.20;;
46675;SDS011;32412;51.478;5.694;2023-12-20T04:48:45;22.40;;;4.40;;
46675;SDS011;32412;51.478;5.694;2023-12-20T04:51:10;21.40;;;6.20;;
46675;SDS011;32412;51.478;5.694;2023-12-20T04:53:36;18.48;;;4.47;;
46675;SDS011;32412;51.478;5.694;2023-12-20T04:56:02;22.52;;;4.75;;
46675;SDS011;32412;51.478;5.694;2023-12-20T04:58:27;25.20;;;5.00;;
46675;SDS011;32412;51.478;5.694;2023-12-20T05:00:53;23.75;;;4.95;;
46675;SDS011;32412;51.478;5.694;2023-12-20T05:03:19;19.05;;;4.88;;
46675;SDS011;32412;51.478;5.694;2023-12-20T05:05:45;26.70;;;5.20;;
46675;SDS011;32412;51.478;5.694;2023-12-20T05:08:10;22.27;;;4.95;;
46675;SDS011;32412;51.478;5.694;2023-12-20T05:10:38;25.30;;;4.75;;
46675;SDS011;32412;51.478;5.694;2023-12-20T05:13:05;21.60;;;5.15;;
46675;SDS011;32412;51.478;5.694;2023-12-20T05:15:31;21.42;;;4.88;;
46675;SDS011;32412;51.478;5.694;2023-12-20T05:17:56;26.50;;;5.22;;
46675;SDS011;32412;51.478;5.694;2023-12-20T05:20:22;25.90;;;4.57;;
46675;SDS011;32412;51.478;5.694;2023-12-20T05:22:48;25.45;;;5.82;;
46675;SDS011;32412;51.478;5.694;2023-12-20T05:25:14;21.63;;;4.22;;
46675;SDS011;32412;51.478;5.694;2023-12-20T05:27:39;21.95;;;5.43;;
46675;SDS011;32412;51.478;5.694;2023-12-20T05:30:05;25.35;;;5.45;;
46675;SDS011;32412;51.478;5.694;2023-12-20T05:32:31;20.58;;;4.90;;
46675;SDS011;32412;51.478;5.694;2023-12-20T05:34:57;28.88;;;4.90;;
46675;SDS011;32412;51.478;5.694;2023-12-20T05:37:22;19.98;;;4.80;;
46675;SDS011;32412;51.478;5.694;2023-12-20T05:39:48;18.95;;;5.13;;
46675;SDS011;32412;51.478;5.694;2023-12-20T05:42:14;16.67;;;4.82;;
46675;SDS011;32412;51.478;5.694;2023-12-20T05:44:40;23.83;;;5.53;;
46675;SDS011;32412;51.478;5.694;2023-12-20T05:47:05;19.42;;;4.93;;
46675;SDS011;32412;51.478;5.694;2023-12-20T05:49:31;17.33;;;4.85;;
46675;SDS011;32412;51.478;5.694;2023-12-20T05:51:57;28.10;;;5.22;;
46675;SDS011;32412;51.478;5.694;2023-12-20T05:54:25;19.77;;;4.95;;
46675;SDS011;32412;51.478;5.694;2023-12-20T05:56:51;20.75;;;4.80;;
46675;SDS011;32412;51.478;5.694;2023-12-20T05:59:17;21.65;;;4.68;;
46675;SDS011;32412;51.478;5.694;2023-12-20T06:01:42;20.30;;;5.13;;
46675;SDS011;32412;51.478;5.694;2023-12-20T06:04:08;22.70;;;4.70;;
46675;SDS011;32412;51.478;5.694;2023-12-20T06:06:33;22.13;;;4.50;;
46675;SDS011;32412;51.478;5.694;2023-12-20T06:09:03;31.45;;;6.30;;
46675;SDS011;32412;51.478;5.694;2023-12-20T06:11:31;19.08;;;5.28;;
46675;SDS011;32412;51.478;5.694;2023-12-20T06:13:57;19.55;;;4.93;;
46675;SDS011;32412;51.478;5.694;2023-12-20T06:16:23;23.98;;;5.35;;
46675;SDS011;32412;51.478;5.694;2023-12-20T06:18:51;20.83;;;5.25;;
46675;SDS011;32412;51.478;5.694;2023-12-20T06:21:17;20.17;;;4.68;;
46675;SDS011;32412;51.478;5.694;2023-12-20T06:23:43;26.25;;;5.90;;
46675;SDS011;32412;51.478;5.694;2023-12-20T06:26:08;19.48;;;4.50;;
46675;SDS011;32412;51.478;5.694;2023-12-20T06:28:34;24.63;;;4.43;;
46675;SDS011;32412;51.478;5.694;2023-12-20T06:31:00;19.50;;;4.55;;
46675;SDS011;32412;51.478;5.694;2023-12-20T06:33:26;18.17;;;3.92;;
46675;SDS011;32412;51.478;5.694;2023-12-20T06:35:52;14.75;;;4.15;;
46675;SDS011;32412;51.478;5.694;2023-12-20T06:38:18;18.60;;;4.55;;
46675;SDS011;32412;51.478;5.694;2023-12-20T06:40:44;16.55;;;4.18;;
46675;SDS011;32412;51.478;5.694;2023-12-20T06:43:11;27.00;;;4.18;;
46675;SDS011;32412;51.478;5.694;2023-12-20T06:45:38;27.88;;;4.25;;
46675;SDS011;32412;51.478;5.694;2023-12-20T06:48:04;16.92;;;3.88;;
46675;SDS011;32412;51.478;5.694;2023-12-20T06:50:30;29.38;;;4.13;;
46675;SDS011;32412;51.478;5.694;2023-12-20T06:52:56;16.15;;;3.90;;
46675;SDS011;32412;51.478;5.694;2023-12-20T06:55:21;25.63;;;3.85;;
46675;SDS011;32412;51.478;5.694;2023-12-20T06:57:47;17.90;;;5.57;;
46675;SDS011;32412;51.478;5.694;2023-12-20T07:00:13;18.42;;;4.00;;
46675;SDS011;32412;51.478;5.694;2023-12-20T07:02:39;21.48;;;4.40;;
46675;SDS011;32412;51.478;5.694;2023-12-20T07:05:04;21.60;;;4.07;;
46675;SDS011;32412;51.478;5.694;2023-12-20T07:07:31;21.80;;;3.83;;
46675;SDS011;32412;51.478;5.694;2023-12-20T07:09:57;19.80;;;3.58;;
46675;SDS011;32412;51.478;5.694;2023-12-20T07:12:22;18.00;;;4.15;;
46675;SDS011;32412;51.478;5.694;2023-12-20T07:14:48;20.15;;;4.10;;
46675;SDS011;32412;51.478;5.694;2023-12-20T07:17:13;18.40;;;3.60;;
46675;SDS011;32412;51.478;5.694;2023-12-20T07:19:40;26.05;;;4.70;;
46675;SDS011;32412;51.478;5.694;2023-12-20T07:22:07;21.70;;;4.35;;
46675;SDS011;32412;51.478;5.694;2023-12-20T07:24:33;21.75;;;4.53;;
46675;SDS011;32412;51.478;5.694;2023-12-20T07:26:59;18.60;;;3.80;;
46675;SDS011;32412;51.478;5.694;2023-12-20T07:29:25;18.60;;;4.32;;
46675;SDS011;32412;51.478;5.694;2023-12-20T07:31:52;20.75;;;3.83;;
46675;SDS011;32412;51.478;5.694;2023-12-20T07:34:19;14.05;;;3.13;;
46675;SDS011;32412;51.478;5.694;2023-12-20T07:36:45;21.20;;;3.65;;
46675;SDS011;32412;51.478;5.694;2023-12-20T07:39:11;17.00;;;3.25;;
46675;SDS011;32412;51.478;5.694;2023-12-20T07:41:36;22.75;;;4.03;;
46675;SDS011;32412;51.478;5.694;2023-12-20T07:44:02;15.77;;;3.67;;
46675;SDS011;32412;51.478;5.694;2023-12-20T07:46:29;23.65;;;4.32;;
46675;SDS011;32412;51.478;5.694;2023-12-20T07:48:54;19.63;;;3.40;;
46675;SDS011;32412;51.478;5.694;2023-12-20T07:51:20;17.38;;;3.30;;
46675;SDS011;32412;51.478;5.694;2023-12-20T07:53:46;20.13;;;3.28;;
46675;SDS011;32412;51.478;5.694;2023-12-20T07:56:18;17.17;;;3.00;;
46675;SDS011;32412;51.478;5.694;2023-12-20T07:58:45;13.07;;;3.03;;
46675;SDS011;32412;51.478;5.694;2023-12-20T08:01:13;20.17;;;3.60;;
46675;SDS011;32412;51.478;5.694;2023-12-20T08:03:38;23.90;;;4.10;;
46675;SDS011;32412;51.478;5.694;2023-12-20T08:06:04;19.27;;;3.17;;
46675;SDS011;32412;51.478;5.694;2023-12-20T08:08:30;16.92;;;3.10;;
46675;SDS011;32412;51.478;5.694;2023-12-20T08:10:56;17.33;;;3.30;;
46675;SDS011;32412;51.478;5.694;2023-12-20T08:13:25;25.70;;;3.28;;
46675;SDS011;32412;51.478;5.694;2023-12-20T08:15:51;15.82;;;3.70;;
46675;SDS011;32412;51.478;5.694;2023-12-20T08:18:18;20.25;;;3.58;;
46675;SDS011;32412;51.478;5.694;2023-12-20T08:20:43;20.77;;;3.20;;
46675;SDS011;32412;51.478;5.694;2023-12-20T08:23:09;14.48;;;3.35;;
46675;SDS011;32412;51.478;5.694;2023-12-20T08:25:41;21.15;;;4.18;;
46675;SDS011;32412;51.478;5.694;2023-12-20T08:28:06;13.77;;;2.70;;
46675;SDS011;32412;51.478;5.694;2023-12-20T08:30:32;17.08;;;3.22;;
46675;SDS011;32412;51.478;5.694;2023-12-20T08:33:01;12.43;;;2.95;;
46675;SDS011;32412;51.478;5.694;2023-12-20T08:35:27;17.55;;;3.03;;
46675;SDS011;32412;51.478;5.694;2023-12-20T08:37:53;18.10;;;3.53;;
46675;SDS011;32412;51.478;5.694;2023-12-20T08:40:19;19.52;;;3.50;;
46675;SDS011;32412;51.478;5.694;2023-12-20T08:42:45;14.80;;;2.97;;
46675;SDS011;32412;51.478;5.694;2023-12-20T08:45:11;19.85;;;3.13;;
46675;SDS011;32412;51.478;5.694;2023-12-20T08:47:36;16.52;;;2.58;;
46675;SDS011;32412;51.478;5.694;2023-12-20T08:50:02;17.83;;;3.42;;
46675;SDS011;32412;51.478;5.694;2023-12-20T08:52:28;20.60;;;3.03;;
46675;SDS011;32412;51.478;5.694;2023-12-20T09:20:48;17.50;;;3.08;;
46675;SDS011;32412;51.478;5.694;2023-12-20T10:38:56;18.63;;;3.30;;
46675;SDS011;32412;51.478;5.694;2023-12-20T10:41:27;20.98;;;2.90;;
46675;SDS011;32412;51.478;5.694;2023-12-20T10:43:58;14.82;;;3.45;;
46675;SDS011;32412;51.478;5.694;2023-12-20T10:46:28;15.75;;;3.15;;
46675;SDS011;32412;51.478;5.694;2023-12-20T10:48:57;18.05;;;3.45;;
46675;SDS011;32412;51.478;5.694;2023-12-20T10:51:24;15.52;;;2.92;;
46675;SDS011;32412;51.478;5.694;2023-12-20T10:53:55;16.70;;;3.65;;
46675;SDS011;32412;51.478;5.694;2023-12-20T10:56:21;12.32;;;2.65;;
46675;SDS011;32412;51.478;5.694;2023-12-20T10:58:48;16.52;;;3.50;;
46675;SDS011;32412;51.478;5.694;2023-12-20T11:01:15;15.80;;;3.15;;
46675;SDS011;32412;51.478;5.694;2023-12-20T11:03:49;15.90;;;3.30;;
46675;SDS011;32412;51.478;5.694;2023-12-20T11:17:15;23.70;;;3.15;;
46675;SDS011;32412;51.478;5.694;2023-12-20T11:22:27;12.40;;;3.38;;
46675;SDS011;32412;51.478;5.694;2023-12-20T11:24:58;14.88;;;3.78;;
46675;SDS011;32412;51.478;5.694;2023-12-20T11:27:33;12.68;;;3.40;;
46675;SDS011;32412;51.478;5.694;2023-12-20T11:29:59;9.90;;;3.35;;
46675;SDS011;32412;51.478;5.694;2023-12-20T11:32:32;22.65;;;3.55;;
46675;SDS011;32412;51.478;5.694;2023-12-20T11:37:32;10.20;;;2.95;;
46675;SDS011;32412;51.478;5.694;2023-12-20T11:40:02;16.08;;;3.55;;
46675;SDS011;32412;51.478;5.694;2023-12-20T11:42:40;13.43;;;3.22;;
46675;SDS011;32412;51.478;5.694;2023-12-20T11:45:11;19.17;;;3.45;;
46675;SDS011;32412;51.478;5.694;2023-12-20T11:47:40;16.52;;;3.58;;
46675;SDS011;32412;51.478;5.694;2023-12-20T11:50:11;19.38;;;3.50;;
46675;SDS011;32412;51.478;5.694;2023-12-20T11:52:36;21.85;;;4.03;;
46675;SDS011;32412;51.478;5.694;2023-12-20T11:55:02;19.05;;;4.25;;
46675;SDS011;32412;51.478;5.694;2023-12-20T11:57:29;17.95;;;4.30;;
46675;SDS011;32412;51.478;5.694;2023-12-20T11:59:55;16.33;;;4.10;;
46675;SDS011;32412;51.478;5.694;2023-12-20T13:33:52;17.33;;;6.13;;
46675;SDS011;32412;51.478;5.694;2023-12-20T13:45:34;21.98;;;7.07;;
46675;SDS011;32412;51.478;5.694;2023-12-20T13:51:49;16.48;;;5.82;;
46675;SDS011;32412;51.478;5.694;2023-12-20T13:54:15;20.42;;;6.72;;
46675;SDS011;32412;51.478;5.694;2023-12-20T13:56:50;23.52;;;6.85;;
46675;SDS011;32412;51.478;5.694;2023-12-20T13:59:19;14.82;;;6.05;;
46675;SDS011;32412;51.478;5.694;2023-12-20T14:01:45;22.63;;;7.20;;
46675;SDS011;32412;51.478;5.694;2023-12-20T14:04:11;22.67;;;6.65;;
46675;SDS011;32412;51.478;5.694;2023-12-20T14:06:37;20.15;;;7.32;;
46675;SDS011;32412;51.478;5.694;2023-12-20T14:09:02;18.73;;;6.53;;
46675;SDS011;32412;51.478;5.694;2023-12-20T14:31:43;13.18;;;6.25;;
46675;SDS011;32412;51.478;5.694;2023-12-20T14:37:32;19.10;;;6.03;;
46675;SDS011;32412;51.478;5.694;2023-12-20T14:40:10;25.35;;;8.13;;
46675;SDS011;32412;51.478;5.694;2023-12-20T14:42:50;29.15;;;11.98;;
46675;SDS011;32412;51.478;5.694;2023-12-20T14:45:32;31.63;;;10.23;;
46675;SDS011;32412;51.478;5.694;2023-12-20T14:48:08;32.92;;;12.85;;
46675;SDS011;32412;51.478;5.694;2023-12-20T14:50:43;20.65;;;5.80;;
46675;SDS011;32412;51.478;5.694;2023-12-20T14:56:41;18.88;;;5.47;;
46675;SDS011;32412;51.478;5.694;2023-12-20T15:02:44;16.67;;;5.65;;
46675;SDS011;32412;51.478;5.694;2023-12-20T15:05:10;17.85;;;5.57;;
46675;SDS011;32412;51.478;5.694;2023-12-20T15:07:36;21.05;;;5.32;;
46675;SDS011;32412;51.478;5.694;2023-12-20T15:10:03;22.38;;;6.00;;
46675;SDS011;32412;51.478;5.694;2023-12-20T15:12:28;14.30;;;4.90;;
46675;SDS011;32412;51.478;5.694;2023-12-20T15:14:54;16.70;;;5.47;;
46675;SDS011;32412;51.478;5.694;2023-12-20T15:17:20;23.77;;;5.30;;
46675;SDS011;32412;51.478;5.694;2023-12-20T15:19:46;20.88;;;5.20;;
46675;SDS011;32412;51.478;5.694;2023-12-20T15:22:12;18.98;;;5.68;;
46675;SDS011;32412;51.478;5.694;2023-12-20T15:24:38;16.30;;;5.20;;
46675;SDS011;32412;51.478;5.694;2023-12-20T15:27:07;21.42;;;5.82;;
46675;SDS011;32412;51.478;5.694;2023-12-20T15:29:33;19.80;;;5.32;;
46675;SDS011;32412;51.478;5.694;2023-12-20T15:31:59;15.23;;;5.50;;
46675;SDS011;32412;51.478;5.694;2023-12-20T15:34:25;15.20;;;5.55;;
46675;SDS011;32412;51.478;5.694;2023-12-20T15:36:50;15.07;;;6.05;;
46675;SDS011;32412;51.478;5.694;2023-12-20T15:39:19;16.13;;;5.43;;
46675;SDS011;32412;51.478;5.694;2023-12-20T15:41:44;19.30;;;5.72;;
46675;SDS011;32412;51.478;5.694;2023-12-20T15:44:10;22.40;;;6.05;;
46675;SDS011;32412;51.478;5.694;2023-12-20T15:46:38;22.52;;;8.90;;
46675;SDS011;32412;51.478;5.694;2023-12-20T15:49:05;17.23;;;5.75;;
46675;SDS011;32412;51.478;5.694;2023-12-20T16:01:50;21.50;;;6.75;;
46675;SDS011;32412;51.478;5.694;2023-12-20T16:04:18;18.98;;;6.22;;
46675;SDS011;32412;51.478;5.694;2023-12-20T16:06:44;21.98;;;6.82;;
46675;SDS011;32412;51.478;5.694;2023-12-20T16:09:10;20.90;;;6.60;;
46675;SDS011;32412;51.478;5.694;2023-12-20T16:15:03;19.92;;;6.88;;
46675;SDS011;32412;51.478;5.694;2023-12-20T16:23:30;13.48;;;5.18;;
46675;SDS011;32412;51.478;5.694;2023-12-20T16:26:06;22.63;;;7.28;;
46675;SDS011;32412;51.478;5.694;2023-12-20T16:28:37;14.40;;;5.95;;
46675;SDS011;32412;51.478;5.694;2023-12-20T16:41:32;25.58;;;7.95;;
46675;SDS011;32412;51.478;5.694;2023-12-20T16:43:58;17.70;;;5.82;;
46675;SDS011;32412;51.478;5.694;2023-12-20T16:46:24;23.73;;;6.68;;
46675;SDS011;32412;51.478;5.694;2023-12-20T16:48:52;17.52;;;5.88;;
46675;SDS011;32412;51.478;5.694;2023-12-20T16:51:18;19.88;;;5.82;;
46675;SDS011;32412;51.478;5.694;2023-12-20T16:53:43;17.65;;;6.05;;
46675;SDS011;32412;51.478;5.694;2023-12-20T16:56:11;23.02;;;6.95;;
46675;SDS011;32412;51.478;5.694;2023-12-20T16:58:39;15.63;;;5.80;;
46675;SDS011;32412;51.478;5.694;2023-12-20T17:01:04;30.40;;;9.55;;
46675;SDS011;32412;51.478;5.694;2023-12-20T17:03:32;19.02;;;5.53;;
46675;SDS011;32412;51.478;5.694;2023-12-20T17:05:58;22.35;;;5.78;;
46675;SDS011;32412;51.478;5.694;2023-12-20T17:08:23;19.73;;;5.47;;
46675;SDS011;32412;51.478;5.694;2023-12-20T17:10:52;18.77;;;5.68;;
46675;SDS011;32412;51.478;5.694;2023-12-20T17:13:20;17.88;;;6.90;;
46675;SDS011;32412;51.478;5.694;2023-12-20T17:15:46;21.23;;;6.38;;
46675;SDS011;32412;51.478;5.694;2023-12-20T17:18:12;15.68;;;6.53;;
46675;SDS011;32412;51.478;5.694;2023-12-20T17:20:37;15.80;;;7.05;;
46675;SDS011;32412;51.478;5.694;2023-12-20T17:23:03;18.42;;;6.88;;
46675;SDS011;32412;51.478;5.694;2023-12-20T17:25:29;19.15;;;7.05;;
46675;SDS011;32412;51.478;5.694;2023-12-20T17:27:56;24.23;;;7.50;;
46675;SDS011;32412;51.478;5.694;2023-12-20T17:30:23;16.38;;;6.85;;
46675;SDS011;32412;51.478;5.694;2023-12-20T17:32:49;25.45;;;7.88;;
46675;SDS011;32412;51.478;5.694;2023-12-20T17:35:16;18.95;;;7.43;;
46675;SDS011;32412;51.478;5.694;2023-12-20T17:37:45;26.13;;;7.68;;
46675;SDS011;32412;51.478;5.694;2023-12-20T17:40:11;20.42;;;8.35;;
46675;SDS011;32412;51.478;5.694;2023-12-20T17:42:46;24.00;;;9.18;;
46675;SDS011;32412;51.478;5.694;2023-12-20T17:45:18;24.15;;;8.45;;
46675;SDS011;32412;51.478;5.694;2023-12-20T17:50:49;20.25;;;8.45;;
46675;SDS011;32412;51.478;5.694;2023-12-20T17:53:25;25.98;;;8.38;;
46675;SDS011;32412;51.478;5.694;2023-12-20T17:56:57;23.10;;;8.18;;
46675;SDS011;32412;51.478;5.694;2023-12-20T17:59:31;28.70;;;9.52;;
46675;SDS011;32412;51.478;5.694;2023-12-20T18:05:26;34.75;;;16.00;;
46675;SDS011;32412;51.478;5.694;2023-12-20T18:07:52;27.25;;;9.40;;
46675;SDS011;32412;51.478;5.694;2023-12-20T18:10:20;19.35;;;9.63;;
46675;SDS011;32412;51.478;5.694;2023-12-20T18:12:46;27.65;;;10.52;;
46675;SDS011;32412;51.478;5.694;2023-12-20T18:15:13;24.55;;;10.52;;
46675;SDS011;32412;51.478;5.694;2023-12-20T18:17:39;25.88;;;10.30;;
46675;SDS011;32412;51.478;5.694;2023-12-20T18:20:06;26.48;;;10.98;;
46675;SDS011;32412;51.478;5.694;2023-12-20T18:22:32;22.08;;;9.07;;
46675;SDS011;32412;51.478;5.694;2023-12-20T18:24:58;25.27;;;9.10;;
46675;SDS011;32412;51.478;5.694;2023-12-20T18:27:27;26.13;;;9.35;;
46675;SDS011;32412;51.478;5.694;2023-12-20T18:29:53;20.42;;;9.32;;
46675;SDS011;32412;51.478;5.694;2023-12-20T18:32:19;22.58;;;8.43;;
46675;SDS011;32412;51.478;5.694;2023-12-20T18:34:46;16.45;;;8.07;;
46675;SDS011;32412;51.478;5.694;2023-12-20T18:37:20;18.35;;;7.88;;
46675;SDS011;32412;51.478;5.694;2023-12-20T18:39:46;19.70;;;9.38;;
46675;SDS011;32412;51.478;5.694;2023-12-20T18:42:11;26.55;;;8.75;;
46675;SDS011;32412;51.478;5.694;2023-12-20T18:44:37;18.50;;;7.90;;
46675;SDS011;32412;51.478;5.694;2023-12-20T18:47:03;22.13;;;8.55;;
46675;SDS011;32412;51.478;5.694;2023-12-20T18:49:30;21.13;;;8.90;;
46675;SDS011;32412;51.478;5.694;2023-12-20T18:51:56;22.17;;;8.35;;
46675;SDS011;32412;51.478;5.694;2023-12-20T18:54:21;17.20;;;8.70;;
46675;SDS011;32412;51.478;5.694;2023-12-20T18:56:47;17.02;;;8.57;;
46675;SDS011;32412;51.478;5.694;2023-12-20T18:59:14;23.70;;;8.35;;
46675;SDS011;32412;51.478;5.694;2023-12-20T19:01:44;13.88;;;8.63;;
46675;SDS011;32412;51.478;5.694;2023-12-20T19:04:10;21.83;;;8.82;;
46675;SDS011;32412;51.478;5.694;2023-12-20T19:06:36;18.00;;;8.48;;
46675;SDS011;32412;51.478;5.694;2023-12-20T19:09:02;15.95;;;8.13;;
46675;SDS011;32412;51.478;5.694;2023-12-20T19:11:33;17.40;;;7.72;;
46675;SDS011;32412;51.478;5.694;2023-12-20T19:14:09;21.50;;;8.82;;
46675;SDS011;32412;51.478;5.694;2023-12-20T19:16:38;14.85;;;7.72;;
46675;SDS011;32412;51.478;5.694;2023-12-20T19:19:03;21.20;;;8.05;;
46675;SDS011;32412;51.478;5.694;2023-12-20T19:21:29;17.27;;;8.07;;